createdAt,value
2022-11-10T00:03:08.623Z,28.90
2022-11-10T00:05:56.521Z,25.00
2022-11-10T00:08:42.731Z,34.60
2022-11-10T00:11:29.757Z,36.70
2022-11-10T00:14:34.779Z,40.00
2022-11-10T00:17:21.158Z,29.40
2022-11-10T00:20:09.145Z,29.00
2022-11-10T00:22:56.750Z,40.00
2022-11-10T00:25:43.005Z,45.60
2022-11-10T00:28:32.188Z,48.10
2022-11-10T00:31:19.253Z,48.80
2022-11-10T00:34:06.565Z,58.10
2022-11-10T00:36:52.893Z,45.40
2022-11-10T00:39:39.334Z,45.60
2022-11-10T00:42:26.006Z,49.00
2022-11-10T00:45:12.991Z,51.50
2022-11-10T00:47:59.687Z,44.90
2022-11-10T00:50:46.265Z,57.60
2022-11-10T00:53:33.120Z,39.80
2022-11-10T00:56:20.356Z,43.70
2022-11-10T00:59:06.768Z,46.60
2022-11-10T01:01:53.284Z,37.80
2022-11-10T01:04:39.614Z,31.30
2022-11-10T01:07:26.046Z,32.70
2022-11-10T01:10:12.954Z,37.70
2022-11-10T01:12:59.617Z,32.50
2022-11-10T01:15:46.003Z,36.60
2022-11-10T01:18:32.906Z,30.00
2022-11-10T01:21:20.393Z,49.00
2022-11-10T01:24:06.869Z,30.90
2022-11-10T01:26:53.089Z,35.40
2022-11-10T01:29:39.781Z,49.70
2022-11-10T01:32:26.881Z,32.90
2022-11-10T01:35:13.389Z,27.50
2022-11-10T01:37:59.882Z,30.80
2022-11-10T01:40:47.137Z,24.50
2022-11-10T01:43:34.131Z,24.20
2022-11-10T01:46:20.690Z,23.50
2022-11-10T01:49:08.655Z,23.70
2022-11-10T01:51:59.303Z,24.80
2022-11-10T01:54:49.580Z,24.60
2022-11-10T01:57:38.051Z,21.90
2022-11-10T02:00:24.606Z,25.30
2022-11-10T02:03:19.682Z,24.00
2022-11-10T02:06:07.980Z,29.40
2022-11-10T02:08:56.565Z,26.30
2022-11-10T02:11:44.395Z,28.40
2022-11-10T02:14:31.311Z,31.70
2022-11-10T02:17:18.080Z,43.30
2022-11-10T02:20:10.435Z,34.10
2022-11-10T02:22:57.210Z,32.70
2022-11-10T02:25:43.983Z,30.80
2022-11-10T02:28:35.257Z,22.80
2022-11-10T02:31:21.784Z,22.70
2022-11-10T02:34:08.623Z,17.90
2022-11-10T02:36:54.894Z,24.00
2022-11-10T02:39:41.381Z,19.70
2022-11-10T02:42:27.596Z,18.40
2022-11-10T02:45:14.295Z,21.90
2022-11-10T02:48:00.809Z,18.10
2022-11-10T02:50:47.479Z,23.60
2022-11-10T02:53:34.234Z,16.30
2022-11-10T02:56:20.927Z,11.00
2022-11-10T02:59:07.530Z,12.70
2022-11-10T03:01:54.349Z,12.50
2022-11-10T03:04:41.357Z,12.60
2022-11-10T03:07:28.129Z,16.30
2022-11-10T03:10:14.780Z,16.40
2022-11-10T03:13:03.450Z,38.80
2022-11-10T03:15:50.825Z,15.10
2022-11-10T03:18:37.688Z,25.20
2022-11-10T03:21:24.242Z,19.50
2022-11-10T03:24:11.014Z,16.80
2022-11-10T03:26:57.346Z,20.90
2022-11-10T03:29:43.855Z,23.30
2022-11-10T03:32:30.658Z,23.00
2022-11-10T03:35:17.750Z,27.40
2022-11-10T03:38:04.474Z,31.00
2022-11-10T03:41:17.536Z,26.90
2022-11-10T03:46:47.860Z,39.90
2022-11-10T03:49:36.910Z,28.30
2022-11-10T03:52:23.510Z,29.30
2022-11-10T03:55:13.563Z,22.90
2022-11-10T03:58:04.472Z,27.30
2022-11-10T04:00:56.103Z,20.30
2022-11-10T04:03:46.182Z,19.70
2022-11-10T04:06:54.504Z,15.30
2022-11-10T04:09:41.409Z,18.10
2022-11-10T04:12:46.903Z,16.80
2022-11-10T04:15:42.725Z,16.60
2022-11-10T04:18:29.957Z,14.70
2022-11-10T04:21:16.570Z,16.80
2022-11-10T04:24:03.525Z,14.30
2022-11-10T04:26:49.983Z,13.10
2022-11-10T04:29:36.424Z,14.60
2022-11-10T04:32:23.149Z,16.90
2022-11-10T04:35:09.745Z,20.20
2022-11-10T04:37:56.194Z,15.60
2022-11-10T04:40:42.657Z,17.10
2022-11-10T04:43:30.000Z,17.90
2022-11-10T04:46:24.554Z,16.60
2022-11-10T04:49:12.015Z,15.40
2022-11-10T04:52:00.840Z,18.60
2022-11-10T04:54:47.367Z,13.70
2022-11-10T04:57:34.174Z,15.10
2022-11-10T05:00:21.182Z,18.40
2022-11-10T05:03:11.516Z,14.10
2022-11-10T05:05:58.165Z,22.30
2022-11-10T05:08:46.417Z,15.50
2022-11-10T05:11:33.323Z,20.20
2022-11-10T05:14:19.916Z,16.60
2022-11-10T05:17:06.428Z,14.90
2022-11-10T05:19:52.975Z,22.50
2022-11-10T05:22:39.588Z,20.20
2022-11-10T05:25:26.263Z,22.10
2022-11-10T05:28:13.674Z,19.00
2022-11-10T05:31:00.470Z,15.40
2022-11-10T05:33:47.119Z,15.10
2022-11-10T05:36:33.743Z,17.00
2022-11-10T05:39:20.727Z,14.90
2022-11-10T05:42:07.767Z,19.80
2022-11-10T05:44:54.606Z,21.90
2022-11-10T05:47:42.308Z,22.40
2022-11-10T05:50:29.896Z,18.50
2022-11-10T05:53:16.541Z,18.00
2022-11-10T05:56:03.446Z,22.40
2022-11-10T05:58:49.951Z,20.90
2022-11-10T06:01:37.003Z,27.30
2022-11-10T06:04:24.065Z,24.10
2022-11-10T06:07:12.077Z,33.00
2022-11-10T06:09:58.937Z,17.40
2022-11-10T06:12:46.791Z,25.80
2022-11-10T06:15:33.910Z,21.60
2022-11-10T06:18:21.034Z,18.10
2022-11-10T06:21:08.063Z,19.20
2022-11-10T06:23:54.710Z,16.10
2022-11-10T06:26:41.582Z,18.90
2022-11-10T06:29:28.630Z,23.00
2022-11-10T06:32:15.276Z,25.30
2022-11-10T06:35:01.851Z,24.50
2022-11-10T06:38:10.785Z,21.90
2022-11-10T06:40:58.008Z,16.50
2022-11-10T06:43:45.062Z,16.30
2022-11-10T06:46:31.687Z,26.30
2022-11-10T06:49:18.743Z,17.80
2022-11-10T06:52:05.896Z,25.80
2022-11-10T06:54:52.517Z,19.60
2022-11-10T06:57:40.242Z,14.20
2022-11-10T07:00:28.219Z,17.20
2022-11-10T07:03:16.247Z,14.20
2022-11-10T07:06:03.145Z,15.30
2022-11-10T07:08:49.965Z,17.60
2022-11-10T07:11:36.986Z,18.00
2022-11-10T07:14:23.617Z,15.80
2022-11-10T07:17:10.362Z,32.40
2022-11-10T07:19:57.372Z,33.10
2022-11-10T07:22:44.126Z,26.60
2022-11-10T07:25:33.468Z,47.40
2022-11-10T07:28:23.479Z,33.30
2022-11-10T07:31:14.719Z,25.60
2022-11-10T07:34:01.520Z,28.70
2022-11-10T07:36:48.760Z,31.70
2022-11-10T07:39:35.501Z,33.70
2022-11-10T07:42:22.270Z,31.30
2022-11-10T07:45:09.515Z,26.20
2022-11-10T07:48:05.069Z,21.80
2022-11-10T07:50:52.144Z,16.40
2022-11-10T07:53:40.197Z,13.00
2022-11-10T07:56:27.667Z,16.10
2022-11-10T07:59:14.535Z,39.80
2022-11-10T08:02:01.699Z,28.30
2022-11-10T08:04:48.979Z,26.10
2022-11-10T08:07:36.344Z,19.80
2022-11-10T08:10:23.775Z,25.80
2022-11-10T08:13:13.076Z,23.30
2022-11-10T08:16:00.472Z,10.10
2022-11-10T08:18:47.688Z,19.90
2022-11-10T08:21:35.171Z,19.90
2022-11-10T08:24:23.628Z,10.90
2022-11-10T08:27:10.520Z,17.50
2022-11-10T08:29:58.190Z,11.60
2022-11-10T08:32:44.849Z,13.00
2022-11-10T08:35:36.042Z,17.80
2022-11-10T08:38:24.506Z,12.80
2022-11-10T08:41:11.582Z,18.30
2022-11-10T08:43:58.585Z,17.80
2022-11-10T08:46:47.314Z,18.10
2022-11-10T08:49:34.451Z,13.80
2022-11-10T08:52:21.215Z,13.50
2022-11-10T08:55:09.229Z,15.70
2022-11-10T08:58:01.105Z,19.80
2022-11-10T09:00:48.678Z,14.90
2022-11-10T09:03:35.509Z,19.90
2022-11-10T09:06:22.342Z,18.90
2022-11-10T09:09:09.423Z,18.40
2022-11-10T09:11:56.780Z,19.10
2022-11-10T09:14:43.741Z,18.10
2022-11-10T09:17:32.427Z,18.90
2022-11-10T09:20:19.713Z,18.40
2022-11-10T09:23:18.528Z,21.30
2022-11-10T09:26:08.132Z,20.80
2022-11-10T09:28:58.317Z,22.90
2022-11-10T09:31:45.749Z,16.50
2022-11-10T09:34:33.655Z,16.00
2022-11-10T09:37:21.324Z,17.90
2022-11-10T09:40:18.095Z,16.70
2022-11-10T09:45:58.395Z,22.10
2022-11-10T09:48:56.021Z,25.60
2022-11-10T09:51:48.200Z,16.90
2022-11-10T09:55:00.472Z,17.90
2022-11-10T09:57:50.436Z,22.50
2022-11-10T10:00:37.608Z,21.40
2022-11-10T10:03:32.154Z,21.10
2022-11-10T10:06:20.440Z,24.90
2022-11-10T10:09:16.080Z,34.90
2022-11-10T10:12:11.998Z,29.90
2022-11-10T10:15:25.679Z,26.50
2022-11-10T10:18:16.519Z,25.00
2022-11-10T10:21:18.222Z,24.70
2022-11-10T10:24:12.691Z,25.80
2022-11-10T10:27:07.216Z,26.30
2022-11-10T10:29:54.015Z,32.00
2022-11-10T10:32:41.520Z,29.20
2022-11-10T10:35:28.943Z,33.80
2022-11-10T10:38:29.395Z,32.70
2022-11-10T10:41:24.275Z,35.20
2022-11-10T10:44:15.706Z,27.80
2022-11-10T10:47:05.662Z,27.90
2022-11-10T10:50:15.163Z,32.00
2022-11-10T10:53:17.178Z,27.60
2022-11-10T10:56:25.308Z,28.60
2022-11-10T10:59:21.536Z,35.80
2022-11-10T11:02:30.005Z,41.40
2022-11-10T11:05:20.075Z,28.00
2022-11-10T11:08:19.443Z,44.60
2022-11-10T11:11:11.431Z,33.50
2022-11-10T11:14:21.449Z,39.20
2022-11-10T11:17:18.720Z,36.60
2022-11-10T11:20:14.336Z,24.30
2022-11-10T11:23:24.363Z,36.30
2022-11-10T11:26:28.265Z,29.20
2022-11-10T11:29:34.204Z,38.60
2022-11-10T11:32:33.937Z,32.50
2022-11-10T11:35:57.487Z,38.60
2022-11-10T11:38:57.684Z,30.90
2022-11-10T11:42:04.318Z,34.80
2022-11-10T11:45:01.919Z,36.50
2022-11-10T11:47:57.999Z,45.30
2022-11-10T11:50:54.898Z,38.40
2022-11-10T11:53:44.733Z,40.70
2022-11-10T11:56:40.158Z,41.00
2022-11-10T11:59:43.227Z,32.60
2022-11-10T12:03:03.915Z,33.30
2022-11-10T12:05:59.783Z,34.20
2022-11-10T12:09:21.447Z,29.10
2022-11-10T12:12:23.817Z,26.60
2022-11-10T12:15:23.203Z,29.10
2022-11-10T12:18:13.441Z,22.20
2022-11-10T12:21:08.423Z,20.80
2022-11-10T12:24:22.812Z,17.80
2022-11-10T12:27:34.690Z,17.40
2022-11-10T12:30:22.394Z,14.70
2022-11-10T12:33:26.139Z,14.50
2022-11-10T12:36:17.807Z,17.40
2022-11-10T12:39:24.379Z,13.30
2022-11-10T12:42:18.372Z,12.90
2022-11-10T12:45:20.404Z,17.90
2022-11-10T12:48:11.637Z,13.70
2022-11-10T12:51:22.149Z,15.70
2022-11-10T12:54:16.910Z,14.80
2022-11-10T12:57:14.634Z,20.40
2022-11-10T13:00:06.142Z,18.20
2022-11-10T13:02:55.705Z,15.40
2022-11-10T13:05:45.899Z,25.30
2022-11-10T13:08:33.185Z,19.10
2022-11-10T13:11:28.184Z,17.80
2022-11-10T13:14:28.849Z,22.10
2022-11-10T13:17:28.880Z,17.90
2022-11-10T13:20:56.976Z,20.10
2022-11-10T13:23:45.305Z,17.30
2022-11-10T13:26:39.214Z,18.70
2022-11-10T13:29:35.156Z,19.20
2022-11-10T13:32:23.621Z,27.10
2022-11-10T13:35:29.148Z,24.10
2022-11-10T13:38:40.603Z,25.90
2022-11-10T13:41:28.138Z,19.50
2022-11-10T13:44:32.833Z,17.40
2022-11-10T13:47:50.718Z,18.30
2022-11-10T13:50:58.908Z,21.60
2022-11-10T13:54:27.561Z,21.60
2022-11-10T13:57:21.027Z,23.20
2022-11-10T14:00:24.023Z,17.50
2022-11-10T14:03:45.118Z,18.80
2022-11-10T14:06:55.219Z,22.20
2022-11-10T14:09:46.819Z,23.20
2022-11-10T14:12:56.859Z,22.70
2022-11-10T14:15:47.766Z,20.30
2022-11-10T14:18:47.209Z,23.80
2022-11-10T14:21:46.459Z,22.30
2022-11-10T14:24:49.192Z,20.40
2022-11-10T14:27:39.038Z,22.60
2022-11-10T14:30:28.087Z,25.80
2022-11-10T14:33:15.487Z,25.70
2022-11-10T14:36:05.388Z,24.10
2022-11-10T14:38:53.024Z,27.80
2022-11-10T14:41:49.195Z,26.60
2022-11-10T14:44:38.418Z,28.90
2022-11-10T14:47:28.884Z,32.30
2022-11-10T14:50:18.689Z,25.70
2022-11-10T14:53:20.985Z,36.30
2022-11-10T14:56:15.452Z,32.50
2022-11-10T14:59:05.174Z,29.50
2022-11-10T15:01:59.055Z,33.20
2022-11-10T15:04:50.645Z,30.10
2022-11-10T15:07:37.812Z,28.70
2022-11-10T15:10:28.317Z,25.10
2022-11-10T15:13:42.428Z,29.90
2022-11-10T15:16:36.899Z,31.60
2022-11-10T15:19:32.804Z,29.20
2022-11-10T15:22:31.360Z,25.30
2022-11-10T15:25:21.948Z,25.60
2022-11-10T15:28:36.886Z,34.90
2022-11-10T15:31:27.154Z,31.80
2022-11-10T15:34:40.925Z,29.20
2022-11-10T15:37:31.323Z,31.70
2022-11-10T15:40:46.173Z,30.10
2022-11-10T15:43:33.583Z,33.10
2022-11-10T15:46:23.320Z,37.20
2022-11-10T15:49:21.156Z,32.20
2022-11-10T15:52:19.304Z,33.10
2022-11-10T15:55:18.960Z,30.40
2022-11-10T15:58:12.162Z,32.00
2022-11-10T16:01:01.000Z,36.10
2022-11-10T16:03:48.158Z,32.10
2022-11-10T16:06:35.118Z,34.00
2022-11-10T16:09:22.741Z,35.20
2022-11-10T16:12:15.984Z,30.00
2022-11-10T16:15:03.577Z,36.80
2022-11-10T16:17:51.318Z,35.90
2022-11-10T16:20:37.865Z,41.70
2022-11-10T16:23:26.406Z,41.20
2022-11-10T16:26:19.079Z,36.50
2022-11-10T16:29:13.898Z,38.60
2022-11-10T16:32:01.125Z,42.90
2022-11-10T16:34:47.585Z,40.20
2022-11-10T16:37:35.179Z,40.50
2022-11-10T16:40:25.067Z,42.30
2022-11-10T16:43:17.715Z,49.90
2022-11-10T16:46:16.202Z,45.20
2022-11-10T16:49:05.150Z,46.10
2022-11-10T16:51:52.111Z,45.20
2022-11-10T16:54:38.956Z,43.50
2022-11-10T16:57:25.988Z,54.80
2022-11-10T17:00:14.167Z,51.90
2022-11-10T17:03:23.631Z,45.80
2022-11-10T17:06:16.227Z,55.40
2022-11-10T17:09:09.724Z,47.20
2022-11-10T17:11:56.809Z,47.30
2022-11-10T17:14:43.945Z,42.10
2022-11-10T17:17:30.659Z,39.00
2022-11-10T17:20:30.202Z,40.40
2022-11-10T17:23:22.398Z,45.30
2022-11-10T17:26:16.598Z,38.00
2022-11-10T17:29:03.758Z,34.70
2022-11-10T17:31:51.974Z,34.80
2022-11-10T17:34:38.883Z,35.80
2022-11-10T17:37:25.990Z,35.10
2022-11-10T17:40:18.163Z,37.90
2022-11-10T17:43:05.026Z,37.40
2022-11-10T17:45:51.779Z,45.30
2022-11-10T17:48:38.990Z,53.80
2022-11-10T17:51:26.407Z,42.40
2022-11-10T17:54:15.474Z,41.90
2022-11-10T17:57:04.590Z,43.90
2022-11-10T17:59:51.649Z,44.30
2022-11-10T18:02:38.598Z,49.20
2022-11-10T18:05:25.537Z,53.20
2022-11-10T18:08:13.983Z,54.20
2022-11-10T18:11:01.133Z,45.50
2022-11-10T18:13:48.108Z,51.00
2022-11-10T18:16:34.574Z,63.10
2022-11-10T18:19:21.257Z,57.30
2022-11-10T18:22:08.113Z,60.00
2022-11-10T18:24:55.003Z,63.90
2022-11-10T18:27:43.206Z,60.40
2022-11-10T18:30:35.288Z,63.30
2022-11-10T18:33:22.564Z,59.90
2022-11-10T18:36:09.928Z,53.30
2022-11-10T18:38:56.510Z,60.30
2022-11-10T18:41:49.126Z,53.90
2022-11-10T18:44:37.222Z,44.70
2022-11-10T18:47:24.210Z,49.00
2022-11-10T18:50:10.978Z,53.00
2022-11-10T18:52:57.862Z,47.20
2022-11-10T18:55:54.004Z,42.60
2022-11-10T18:58:41.428Z,42.00
2022-11-10T19:01:28.307Z,46.90
2022-11-10T19:04:15.212Z,59.30
2022-11-10T19:07:01.722Z,58.80
2022-11-10T19:09:48.484Z,51.20
2022-11-10T19:12:35.259Z,54.60
2022-11-10T19:15:22.057Z,54.90
2022-11-10T19:18:08.690Z,49.60
2022-11-10T19:20:55.211Z,47.00
2022-11-10T19:23:42.243Z,50.90
2022-11-10T19:26:29.633Z,48.70
2022-11-10T19:29:17.458Z,52.20
2022-11-10T19:32:04.436Z,42.30
2022-11-10T19:34:51.157Z,48.10
2022-11-10T19:37:37.763Z,51.10
2022-11-10T19:40:25.117Z,52.60
2022-11-10T19:43:11.785Z,52.50
2022-11-10T19:46:03.035Z,55.70
2022-11-10T19:48:49.668Z,51.20
2022-11-10T19:51:36.527Z,53.60
2022-11-10T19:54:22.947Z,45.60
2022-11-10T19:57:09.856Z,44.20
2022-11-10T19:59:56.768Z,39.70
2022-11-10T20:02:45.731Z,41.20
2022-11-10T20:05:32.505Z,46.50
2022-11-10T20:08:19.158Z,45.80
2022-11-10T20:11:12.545Z,46.90
2022-11-10T20:14:00.729Z,47.70
2022-11-10T20:16:47.483Z,46.10
2022-11-10T20:19:40.831Z,51.40
2022-11-10T20:22:28.109Z,52.50
2022-11-10T20:25:14.833Z,53.70
2022-11-10T20:28:03.608Z,50.60
2022-11-10T20:30:50.344Z,53.90
2022-11-10T20:33:37.745Z,56.50
2022-11-10T20:36:28.080Z,51.60
2022-11-10T20:39:14.348Z,45.30
2022-11-10T20:42:01.324Z,48.60
2022-11-10T20:44:47.822Z,48.90
2022-11-10T20:47:34.761Z,44.60
2022-11-10T20:50:24.380Z,51.70
2022-11-10T20:53:11.439Z,40.30
2022-11-10T20:55:59.810Z,41.10
2022-11-10T20:58:46.993Z,40.30
2022-11-10T21:01:33.790Z,38.90
2022-11-10T21:04:21.285Z,48.40
2022-11-10T21:07:07.973Z,52.70
2022-11-10T21:09:54.749Z,50.80
2022-11-10T21:12:50.115Z,53.30
2022-11-10T21:15:40.509Z,53.50
2022-11-10T21:18:30.411Z,50.70
2022-11-10T21:21:23.032Z,44.80
2022-11-10T21:24:10.198Z,48.30
2022-11-10T21:26:57.978Z,50.70
2022-11-10T21:29:44.630Z,48.60
2022-11-10T21:32:31.526Z,50.20
2022-11-10T21:35:18.192Z,48.10
2022-11-10T21:38:04.951Z,45.00
2022-11-10T21:40:51.344Z,46.70
2022-11-10T21:43:41.096Z,51.50
2022-11-10T21:46:27.693Z,62.40
2022-11-10T21:49:14.198Z,47.60
2022-11-10T21:52:00.670Z,52.90
2022-11-10T21:54:47.536Z,59.90
2022-11-10T21:57:37.249Z,49.80
2022-11-10T22:00:24.152Z,53.90
2022-11-10T22:03:10.565Z,52.70
2022-11-10T22:06:06.607Z,60.00
2022-11-10T22:08:52.996Z,51.00
2022-11-10T22:11:58.093Z,54.70
2022-11-10T22:15:03.711Z,55.40
2022-11-10T22:18:08.678Z,49.30
2022-11-10T22:20:55.096Z,55.40
2022-11-10T22:24:00.428Z,46.30
2022-11-10T22:26:47.491Z,46.80
2022-11-10T22:29:34.363Z,43.40
2022-11-10T22:32:20.786Z,49.70
2022-11-10T22:35:07.948Z,45.80
2022-11-10T22:37:54.621Z,43.80
2022-11-10T22:41:00.029Z,44.80
2022-11-10T22:44:05.177Z,49.90
2022-11-10T22:46:52.508Z,56.10
2022-11-10T22:49:39.101Z,49.70
2022-11-10T22:52:25.845Z,50.40
2022-11-10T22:55:12.545Z,54.80
2022-11-10T22:57:59.058Z,52.80
2022-11-10T23:00:46.963Z,49.20
2022-11-10T23:03:33.517Z,57.40
2022-11-10T23:06:20.722Z,54.00
2022-11-10T23:09:07.626Z,49.80
2022-11-10T23:11:54.032Z,49.20
2022-11-10T23:14:40.734Z,52.20
2022-11-10T23:17:27.324Z,51.60
2022-11-10T23:20:14.379Z,52.60
2022-11-10T23:23:01.149Z,46.70
2022-11-10T23:25:59.471Z,41.90
2022-11-10T23:28:46.939Z,50.00
2022-11-10T23:31:33.360Z,52.40
2022-11-10T23:34:20.177Z,52.80
2022-11-10T23:37:06.694Z,50.00
2022-11-10T23:39:53.250Z,49.30
2022-11-10T23:42:39.890Z,51.90
2022-11-10T23:45:32.902Z,52.50
2022-11-10T23:51:20.387Z,51.10
2022-11-10T23:54:07.014Z,54.00
2022-11-10T23:56:53.575Z,45.00
2022-11-10T23:59:40.439Z,48.40
